createdAt,value
2023-05-13T00:02:08.403Z,7.07
2023-05-13T00:04:36.127Z,5.82
2023-05-13T00:07:03.312Z,5.72
2023-05-13T00:09:30.500Z,6.57
2023-05-13T00:11:57.739Z,6.07
2023-05-13T00:14:25.091Z,5.75
2023-05-13T00:16:52.322Z,5.97
2023-05-13T00:19:19.452Z,5.47
2023-05-13T00:21:46.942Z,5.90
2023-05-13T00:24:14.210Z,5.90
2023-05-13T00:26:41.482Z,6.53
2023-05-13T00:29:08.947Z,5.18
2023-05-13T00:31:37.567Z,6.13
2023-05-13T00:34:04.836Z,6.10
2023-05-13T00:36:32.049Z,6.20
2023-05-13T00:38:59.312Z,6.20
2023-05-13T00:41:26.786Z,5.72
2023-05-13T00:43:57.391Z,6.20
2023-05-13T00:46:25.675Z,6.20
2023-05-13T00:48:53.315Z,6.07
2023-05-13T00:51:20.662Z,6.55
2023-05-13T00:53:48.281Z,6.18
2023-05-13T00:56:24.570Z,6.45
2023-05-13T00:58:52.386Z,6.68
2023-05-13T01:01:32.811Z,6.70
2023-05-13T01:04:39.777Z,6.75
2023-05-13T01:07:28.773Z,6.68
2023-05-13T01:10:27.907Z,5.97
2023-05-13T01:13:00.190Z,6.40
2023-05-13T01:15:29.258Z,6.30
2023-05-13T01:18:06.621Z,6.28
2023-05-13T01:20:35.224Z,5.88
2023-05-13T01:23:04.098Z,6.03
2023-05-13T01:25:31.588Z,6.00
2023-05-13T01:27:59.278Z,6.00
2023-05-13T01:30:26.935Z,6.05
2023-05-13T01:32:54.442Z,5.85
2023-05-13T01:35:24.449Z,6.80
2023-05-13T01:37:52.527Z,6.32
2023-05-13T01:40:31.740Z,5.70
2023-05-13T01:43:04.583Z,6.15
2023-05-13T01:45:33.241Z,6.30
2023-05-13T01:48:01.703Z,6.30
2023-05-13T01:50:38.831Z,6.93
2023-05-13T01:53:06.513Z,6.53
2023-05-13T01:55:33.736Z,7.20
2023-05-13T01:58:03.069Z,6.82
2023-05-13T02:00:30.321Z,7.20
2023-05-13T02:02:57.951Z,6.07
2023-05-13T02:05:25.292Z,6.63
2023-05-13T02:07:52.997Z,7.10
2023-05-13T02:10:20.400Z,6.18
2023-05-13T02:12:47.988Z,5.97
2023-05-13T02:15:15.399Z,6.50
2023-05-13T02:17:42.706Z,6.55
2023-05-13T02:20:10.580Z,7.63
2023-05-13T02:22:37.798Z,7.30
2023-05-13T02:25:08.168Z,6.97
2023-05-13T02:27:37.278Z,6.78
2023-05-13T02:30:05.749Z,6.72
2023-05-13T02:32:33.252Z,6.95
2023-05-13T02:35:00.551Z,7.70
2023-05-13T02:37:27.980Z,7.68
2023-05-13T02:40:01.922Z,7.70
2023-05-13T02:42:29.619Z,7.45
2023-05-13T02:44:57.484Z,7.20
2023-05-13T02:47:26.129Z,7.85
2023-05-13T02:49:55.083Z,7.83
2023-05-13T02:52:23.668Z,8.48
2023-05-13T02:54:50.923Z,8.75
2023-05-13T02:57:18.154Z,8.65
2023-05-13T02:59:46.081Z,8.45
2023-05-13T03:02:13.311Z,8.47
2023-05-13T03:04:41.260Z,8.45
2023-05-13T03:07:08.476Z,8.88
2023-05-13T03:09:39.041Z,8.90
2023-05-13T03:12:07.496Z,9.82
2023-05-13T03:14:36.823Z,9.07
2023-05-13T03:17:04.353Z,9.18
2023-05-13T03:19:32.873Z,8.35
2023-05-13T03:22:00.196Z,9.35
2023-05-13T03:24:27.544Z,9.18
2023-05-13T03:26:55.029Z,9.83
2023-05-13T03:29:22.279Z,9.50
2023-05-13T03:31:50.996Z,9.82
2023-05-13T03:34:18.264Z,9.35
2023-05-13T03:36:46.074Z,9.35
2023-05-13T03:39:13.908Z,8.03
2023-05-13T03:41:41.084Z,8.88
2023-05-13T03:44:08.325Z,8.00
2023-05-13T03:46:37.847Z,8.00
2023-05-13T03:49:05.613Z,8.50
2023-05-13T03:51:34.291Z,8.37
2023-05-13T03:54:02.303Z,9.32
2023-05-13T03:56:29.619Z,9.05
2023-05-13T03:58:56.941Z,9.90
2023-05-13T04:01:24.881Z,9.68
2023-05-13T04:03:52.332Z,9.53
2023-05-13T04:06:19.539Z,9.05
2023-05-13T04:08:49.313Z,9.35
2023-05-13T04:11:16.621Z,8.77
2023-05-13T04:13:45.806Z,10.27
2023-05-13T04:16:13.341Z,9.20
2023-05-13T04:18:42.077Z,8.70
2023-05-13T04:21:10.022Z,9.88
2023-05-13T04:23:37.239Z,9.32
2023-05-13T04:26:04.425Z,10.77
2023-05-13T04:28:31.781Z,10.30
2023-05-13T04:31:00.092Z,9.80
2023-05-13T04:33:27.335Z,9.38
2023-05-13T04:35:54.626Z,9.95
2023-05-13T04:38:22.596Z,9.90
2023-05-13T04:40:49.784Z,9.63
2023-05-13T04:43:22.858Z,9.77
2023-05-13T04:45:54.116Z,9.07
2023-05-13T04:48:21.858Z,8.75
2023-05-13T04:50:50.688Z,9.98
2023-05-13T04:53:18.260Z,8.87
2023-05-13T04:55:50.491Z,9.13
2023-05-13T04:58:17.883Z,10.18
2023-05-13T05:00:45.672Z,10.00
2023-05-13T05:03:13.366Z,9.73
2023-05-13T05:05:40.937Z,9.10
2023-05-13T05:08:09.413Z,10.25
2023-05-13T05:10:37.594Z,9.98
2023-05-13T05:13:05.136Z,9.25
2023-05-13T05:15:32.373Z,9.35
2023-05-13T05:18:01.723Z,9.50
2023-05-13T05:20:29.175Z,9.98
2023-05-13T05:22:59.729Z,10.25
2023-05-13T05:25:28.806Z,10.63
2023-05-13T05:27:56.885Z,10.00
2023-05-13T05:30:24.921Z,10.27
2023-05-13T05:33:01.518Z,9.10
2023-05-13T05:35:29.204Z,9.75
2023-05-13T05:37:56.978Z,8.27
2023-05-13T05:40:25.039Z,8.40
2023-05-13T05:42:52.304Z,9.87
2023-05-13T05:45:20.481Z,9.80
2023-05-13T05:47:47.822Z,8.77
2023-05-13T05:50:15.217Z,7.88
2023-05-13T05:52:42.415Z,9.45
2023-05-13T05:55:12.285Z,8.90
2023-05-13T05:57:39.507Z,9.13
2023-05-13T06:00:07.922Z,9.57
2023-05-13T06:02:42.419Z,8.55
2023-05-13T06:05:12.541Z,8.80
2023-05-13T06:07:41.028Z,8.27
2023-05-13T06:10:08.681Z,6.75
2023-05-13T06:12:36.361Z,8.13
2023-05-13T06:15:06.401Z,8.55
2023-05-13T06:17:33.669Z,8.25
2023-05-13T06:20:00.938Z,7.80
2023-05-13T06:22:28.126Z,8.18
2023-05-13T06:24:55.456Z,8.60
2023-05-13T06:27:22.624Z,8.35
2023-05-13T06:29:51.743Z,8.02
2023-05-13T06:32:20.587Z,8.02
2023-05-13T06:34:48.563Z,8.00
2023-05-13T06:37:15.961Z,8.35
2023-05-13T06:39:43.701Z,8.25
2023-05-13T06:42:12.385Z,7.55
2023-05-13T06:44:45.015Z,7.07
2023-05-13T06:47:15.793Z,7.93
2023-05-13T06:49:44.029Z,8.48
2023-05-13T06:52:11.276Z,7.80
2023-05-13T06:54:38.619Z,7.43
2023-05-13T06:57:07.298Z,6.72
2023-05-13T06:59:36.190Z,7.18
2023-05-13T07:02:03.597Z,7.45
2023-05-13T07:04:30.752Z,7.60
2023-05-13T07:06:57.948Z,7.35
2023-05-13T07:09:25.216Z,7.45
2023-05-13T07:11:52.500Z,7.07
2023-05-13T07:14:20.043Z,6.28
2023-05-13T07:16:47.275Z,6.07
2023-05-13T07:19:14.557Z,6.50
2023-05-13T07:21:41.822Z,7.03
2023-05-13T07:24:09.404Z,6.22
2023-05-13T07:26:36.591Z,5.75
2023-05-13T07:29:03.914Z,6.40
2023-05-13T07:31:31.298Z,6.65
2023-05-13T07:33:58.451Z,5.68
2023-05-13T07:36:25.751Z,6.35
2023-05-13T07:38:53.491Z,5.95
2023-05-13T07:41:21.212Z,5.97
2023-05-13T07:43:48.449Z,5.97
2023-05-13T07:46:18.928Z,6.15
2023-05-13T07:48:46.182Z,5.60
2023-05-13T07:51:13.483Z,6.40
2023-05-13T07:53:40.787Z,5.93
2023-05-13T07:56:08.037Z,5.95
2023-05-13T07:58:35.207Z,5.10
2023-05-13T08:01:04.100Z,5.80
2023-05-13T08:03:31.572Z,5.45
2023-05-13T08:05:58.944Z,5.78
2023-05-13T08:08:26.317Z,5.47
2023-05-13T08:10:53.553Z,5.93
2023-05-13T08:13:21.806Z,5.40
2023-05-13T08:15:49.061Z,5.57
2023-05-13T08:18:16.213Z,5.63
2023-05-13T08:20:43.423Z,5.53
2023-05-13T08:23:10.668Z,5.72
2023-05-13T08:25:37.939Z,5.63
2023-05-13T08:28:07.385Z,5.80
2023-05-13T08:30:34.564Z,5.75
2023-05-13T08:33:02.016Z,5.25
2023-05-13T08:35:29.225Z,5.35
2023-05-13T08:37:56.560Z,5.32
2023-05-13T08:40:23.785Z,5.18
2023-05-13T08:42:52.784Z,5.40
2023-05-13T08:45:22.881Z,5.78
2023-05-13T08:47:53.698Z,5.78
2023-05-13T08:50:22.253Z,5.45
2023-05-13T08:52:56.274Z,5.97
2023-05-13T08:55:24.435Z,5.57
2023-05-13T08:57:54.870Z,5.57
2023-05-13T09:00:23.343Z,6.22
2023-05-13T09:02:51.737Z,6.13
2023-05-13T09:05:22.359Z,5.75
2023-05-13T09:07:49.896Z,6.25
2023-05-13T09:10:18.795Z,6.53
2023-05-13T09:12:46.057Z,6.55
2023-05-13T09:15:21.716Z,6.77
2023-05-13T09:18:16.388Z,7.32
2023-05-13T09:20:45.282Z,6.50
2023-05-13T09:23:13.712Z,6.30
2023-05-13T09:25:40.995Z,5.90
2023-05-13T09:28:08.430Z,6.73
2023-05-13T09:30:46.768Z,6.03
2023-05-13T09:33:22.606Z,6.25
2023-05-13T09:35:53.880Z,6.45
2023-05-13T09:38:21.997Z,5.88
2023-05-13T09:40:57.233Z,5.73
2023-05-13T09:43:26.951Z,6.45
2023-05-13T09:45:55.151Z,6.18
2023-05-13T09:48:26.819Z,6.72
2023-05-13T09:50:56.041Z,6.00
2023-05-13T09:53:23.945Z,6.30
2023-05-13T09:55:53.213Z,6.80
2023-05-13T09:58:21.954Z,6.75
2023-05-13T10:00:49.383Z,5.90
2023-05-13T10:03:16.717Z,6.00
2023-05-13T10:05:44.655Z,6.23
2023-05-13T10:08:13.714Z,6.03
2023-05-13T10:10:42.516Z,6.22
2023-05-13T10:13:13.556Z,5.97
2023-05-13T10:16:01.149Z,6.47
2023-05-13T10:18:29.024Z,5.60
2023-05-13T10:20:57.428Z,6.22
2023-05-13T10:23:25.063Z,5.88
2023-05-13T10:25:54.079Z,6.35
2023-05-13T10:28:22.382Z,5.40
2023-05-13T10:30:51.364Z,5.70
2023-05-13T10:33:18.761Z,5.38
2023-05-13T10:36:06.698Z,5.30
2023-05-13T10:39:13.887Z,5.15
2023-05-13T10:42:09.020Z,5.40
2023-05-13T10:44:36.348Z,5.20
2023-05-13T10:47:03.798Z,5.55
2023-05-13T10:49:35.028Z,5.60
2023-05-13T10:52:10.948Z,5.57
2023-05-13T10:54:41.927Z,5.35
2023-05-13T10:57:09.877Z,6.63
2023-05-13T10:59:37.244Z,5.35
2023-05-13T11:02:24.096Z,5.65
2023-05-13T11:05:00.999Z,6.88
2023-05-13T11:07:31.290Z,5.88
2023-05-13T11:09:59.816Z,5.57
2023-05-13T11:12:27.028Z,6.30
2023-05-13T11:14:57.370Z,5.60
2023-05-13T11:17:24.609Z,6.30
2023-05-13T11:19:53.191Z,6.35
2023-05-13T11:22:23.833Z,6.27
2023-05-13T11:25:10.050Z,6.53
2023-05-13T11:27:42.277Z,6.25
2023-05-13T11:30:22.899Z,5.72
2023-05-13T11:32:58.227Z,6.72
2023-05-13T11:35:31.465Z,6.80
2023-05-13T11:38:03.569Z,6.68
2023-05-13T11:40:30.737Z,6.32
2023-05-13T11:42:58.685Z,6.60
2023-05-13T11:45:27.160Z,6.80
2023-05-13T11:47:55.003Z,6.90
2023-05-13T11:50:29.930Z,6.38
2023-05-13T11:52:59.496Z,7.00
2023-05-13T11:55:31.743Z,7.25
2023-05-13T11:57:59.616Z,7.18
2023-05-13T12:00:27.406Z,6.97
2023-05-13T12:02:55.162Z,8.15
2023-05-13T12:05:23.462Z,8.00
2023-05-13T12:07:51.807Z,7.60
2023-05-13T12:10:19.088Z,7.13
2023-05-13T12:12:46.818Z,7.83
2023-05-13T12:15:16.936Z,7.13
2023-05-13T12:17:45.289Z,9.52
2023-05-13T12:20:14.082Z,7.95
2023-05-13T12:22:44.232Z,9.25
2023-05-13T12:25:37.990Z,7.23
2023-05-13T12:28:09.755Z,8.00
2023-05-13T12:30:38.585Z,9.90
2023-05-13T12:33:06.492Z,7.68
2023-05-13T12:35:33.954Z,8.35
2023-05-13T12:38:05.431Z,7.87
2023-05-13T12:40:32.913Z,8.15
2023-05-13T12:43:01.886Z,7.85
2023-05-13T12:45:33.433Z,9.25
2023-05-13T12:48:01.709Z,9.38
2023-05-13T12:50:28.958Z,8.67
2023-05-13T12:52:57.736Z,9.82
2023-05-13T12:55:27.156Z,8.93
2023-05-13T12:58:03.005Z,7.80
2023-05-13T13:00:30.893Z,9.93
2023-05-13T13:02:58.332Z,11.20
2023-05-13T13:05:26.776Z,8.98
2023-05-13T13:07:53.979Z,8.90
2023-05-13T13:10:22.357Z,13.27
2023-05-13T13:12:50.096Z,7.45
2023-05-13T13:15:17.423Z,7.83
2023-05-13T13:17:44.649Z,7.68
2023-05-13T13:20:12.532Z,8.13
2023-05-13T13:22:39.850Z,7.97
2023-05-13T13:25:07.803Z,7.57
2023-05-13T13:27:35.189Z,7.70
2023-05-13T13:30:02.590Z,6.60
2023-05-13T13:32:29.917Z,7.45
2023-05-13T13:34:58.213Z,9.05
2023-05-13T13:37:25.697Z,7.43
2023-05-13T13:39:53.080Z,8.07
2023-05-13T13:42:21.331Z,6.95
2023-05-13T13:44:49.403Z,7.43
2023-05-13T13:47:16.647Z,8.23
2023-05-13T13:49:43.779Z,7.93
2023-05-13T13:52:11.124Z,7.80
2023-05-13T13:54:38.389Z,7.78
2023-05-13T13:57:05.904Z,7.78
2023-05-13T13:59:33.135Z,7.55
2023-05-13T14:02:00.495Z,7.47
2023-05-13T14:04:30.066Z,7.47
2023-05-13T14:06:57.735Z,8.02
2023-05-13T14:09:27.267Z,8.40
2023-05-13T14:11:54.463Z,7.68
2023-05-13T14:14:21.665Z,8.20
2023-05-13T14:16:48.841Z,7.07
2023-05-13T14:19:18.037Z,7.30
2023-05-13T14:21:46.713Z,7.60
2023-05-13T14:24:13.905Z,7.75
2023-05-13T14:26:41.173Z,7.25
2023-05-13T14:29:08.338Z,8.23
2023-05-13T14:31:35.858Z,7.28
2023-05-13T14:34:07.031Z,7.25
2023-05-13T14:36:35.638Z,6.97
2023-05-13T14:39:02.949Z,7.03
2023-05-13T14:41:30.211Z,7.57
2023-05-13T14:43:57.359Z,7.50
2023-05-13T14:46:24.660Z,8.23
2023-05-13T14:48:51.875Z,7.22
2023-05-13T14:51:19.045Z,7.65
2023-05-13T14:53:46.258Z,7.50
2023-05-13T14:56:13.473Z,8.48
2023-05-13T14:58:41.683Z,8.50
2023-05-13T15:01:08.910Z,8.23
2023-05-13T15:03:36.238Z,9.05
2023-05-13T15:06:03.818Z,8.43
2023-05-13T15:08:31.133Z,8.57
2023-05-13T15:10:59.780Z,7.72
2023-05-13T15:13:28.670Z,8.10
2023-05-13T15:15:56.097Z,7.80
2023-05-13T15:18:23.341Z,7.47
2023-05-13T15:20:51.358Z,8.15
2023-05-13T15:23:19.004Z,7.53
2023-05-13T15:25:46.824Z,8.80
2023-05-13T15:28:14.497Z,7.43
2023-05-13T15:30:42.590Z,7.20
2023-05-13T15:33:10.038Z,7.32
2023-05-13T15:35:37.322Z,7.28
2023-05-13T15:38:04.577Z,7.13
2023-05-13T15:40:31.775Z,6.40
2023-05-13T15:42:58.955Z,7.73
2023-05-13T15:45:26.205Z,6.85
2023-05-13T15:47:53.644Z,7.82
2023-05-13T15:50:21.252Z,7.60
2023-05-13T15:52:48.708Z,8.18
2023-05-13T15:55:15.967Z,7.57
2023-05-13T15:57:43.103Z,7.25
2023-05-13T16:00:10.947Z,7.57
2023-05-13T16:02:41.519Z,6.75
2023-05-13T16:05:08.854Z,6.90
2023-05-13T16:07:36.042Z,7.37
2023-05-13T16:10:03.863Z,7.80
2023-05-13T16:12:31.526Z,7.30
2023-05-13T16:14:58.773Z,8.30
2023-05-13T16:17:26.024Z,7.70
2023-05-13T16:19:53.296Z,8.10
2023-05-13T16:22:34.808Z,7.70
2023-05-13T16:25:07.705Z,8.98
2023-05-13T16:27:35.814Z,8.15
2023-05-13T16:30:04.483Z,7.65
2023-05-13T16:32:32.146Z,7.57
2023-05-13T16:35:01.290Z,7.85
2023-05-13T16:37:28.718Z,8.35
2023-05-13T16:39:55.939Z,8.15
2023-05-13T16:42:23.507Z,6.72
2023-05-13T16:44:50.702Z,8.40
2023-05-13T16:47:17.937Z,7.28
2023-05-13T16:49:45.513Z,7.05
2023-05-13T16:52:12.807Z,7.65
2023-05-13T16:54:40.073Z,7.30
2023-05-13T16:57:07.280Z,7.47
2023-05-13T16:59:34.759Z,7.03
2023-05-13T17:02:02.612Z,7.45
2023-05-13T17:04:29.843Z,7.35
2023-05-13T17:06:59.019Z,7.53
2023-05-13T17:09:26.501Z,6.97
2023-05-13T17:11:54.472Z,7.25
2023-05-13T17:14:22.121Z,6.55
2023-05-13T17:16:49.365Z,6.82
2023-05-13T17:19:17.047Z,6.53
2023-05-13T17:21:44.356Z,6.87
2023-05-13T17:24:11.564Z,7.32
2023-05-13T17:26:39.172Z,7.28
2023-05-13T17:29:06.543Z,6.88
2023-05-13T17:31:34.018Z,6.65
2023-05-13T17:34:01.320Z,6.87
2023-05-13T17:36:28.601Z,6.93
2023-05-13T17:38:55.826Z,6.55
2023-05-13T17:41:22.993Z,6.82
2023-05-13T17:43:50.598Z,6.93
2023-05-13T17:46:17.916Z,7.07
2023-05-13T17:48:45.209Z,7.25
2023-05-13T17:51:12.550Z,7.18
2023-05-13T17:53:39.786Z,6.90
2023-05-13T17:56:08.460Z,7.05
2023-05-13T17:58:35.752Z,6.63
2023-05-13T18:01:02.986Z,6.93
2023-05-13T18:03:30.200Z,6.60
2023-05-13T18:05:57.594Z,5.97
2023-05-13T18:08:24.925Z,6.95
2023-05-13T18:10:52.159Z,7.80
2023-05-13T18:13:19.326Z,7.55
2023-05-13T18:15:46.588Z,6.90
2023-05-13T18:18:13.907Z,7.13
2023-05-13T18:20:42.008Z,6.75
2023-05-13T18:23:09.276Z,6.63
2023-05-13T18:25:45.410Z,7.45
2023-05-13T18:28:15.882Z,8.15
2023-05-13T18:30:43.054Z,8.90
2023-05-13T18:33:10.250Z,8.27
2023-05-13T18:35:38.040Z,8.70
2023-05-13T18:38:06.287Z,9.52
2023-05-13T18:40:33.544Z,9.00
2023-05-13T18:43:00.803Z,9.43
2023-05-13T18:45:27.947Z,9.10
2023-05-13T18:47:55.103Z,9.98
2023-05-13T18:50:22.678Z,10.25
2023-05-13T18:52:50.246Z,9.57
2023-05-13T18:55:17.943Z,9.05
2023-05-13T18:57:45.466Z,8.93
2023-05-13T19:00:13.301Z,9.15
2023-05-13T19:02:40.830Z,10.15
2023-05-13T19:05:08.498Z,8.60
2023-05-13T19:07:36.813Z,11.45
2023-05-13T19:10:04.241Z,9.27
2023-05-13T19:12:32.622Z,9.82
2023-05-13T19:14:59.830Z,9.55
2023-05-13T19:17:27.192Z,9.77
2023-05-13T19:19:55.144Z,8.90
2023-05-13T19:22:22.349Z,9.50
2023-05-13T19:24:49.590Z,9.43
2023-05-13T19:27:16.918Z,9.63
2023-05-13T19:29:44.121Z,10.32
2023-05-13T19:32:11.310Z,9.85
2023-05-13T19:34:38.507Z,10.55
2023-05-13T19:37:06.384Z,9.05
2023-05-13T19:39:33.633Z,9.50
2023-05-13T19:42:00.992Z,9.40
2023-05-13T19:44:28.579Z,9.95
2023-05-13T19:46:56.854Z,11.02
2023-05-13T19:49:24.751Z,10.75
2023-05-13T19:51:53.079Z,9.40
2023-05-13T19:54:20.505Z,9.50
2023-05-13T19:56:47.712Z,10.35
2023-05-13T19:59:15.124Z,9.38
2023-05-13T20:01:42.533Z,10.88
2023-05-13T20:04:09.883Z,10.68
2023-05-13T20:06:37.172Z,9.38
2023-05-13T20:09:04.547Z,10.85
2023-05-13T20:11:32.148Z,9.65
2023-05-13T20:13:59.646Z,10.85
2023-05-13T20:16:26.909Z,9.98
2023-05-13T20:18:54.399Z,10.55
2023-05-13T20:21:21.599Z,10.68
2023-05-13T20:23:48.831Z,10.88
2023-05-13T20:26:16.114Z,10.65
2023-05-13T20:28:45.074Z,10.07
2023-05-13T20:31:12.352Z,11.00
2023-05-13T20:33:39.548Z,10.90
2023-05-13T20:36:07.082Z,10.55
2023-05-13T20:38:34.340Z,9.93
2023-05-13T20:41:01.557Z,11.10
2023-05-13T20:43:31.942Z,10.55
2023-05-13T20:45:59.149Z,10.02
2023-05-13T20:48:26.784Z,12.15
2023-05-13T20:51:04.302Z,11.05
2023-05-13T20:53:37.493Z,12.23
2023-05-13T20:56:05.291Z,11.90
2023-05-13T20:58:32.562Z,11.05
2023-05-13T21:00:59.805Z,10.73
2023-05-13T21:03:27.264Z,10.10
2023-05-13T21:05:54.426Z,11.10
2023-05-13T21:08:21.593Z,12.25
2023-05-13T21:10:48.832Z,13.73
2023-05-13T21:13:16.268Z,11.97
2023-05-13T21:15:43.460Z,12.77
2023-05-13T21:18:10.662Z,11.63
2023-05-13T21:20:37.886Z,11.23
2023-05-13T21:23:05.144Z,11.95
2023-05-13T21:25:32.339Z,11.00
2023-05-13T21:27:59.563Z,11.35
2023-05-13T21:30:26.805Z,12.82
2023-05-13T21:32:54.025Z,12.38
2023-05-13T21:35:21.287Z,11.45
2023-05-13T21:37:48.810Z,10.90
2023-05-13T21:40:17.321Z,10.43
2023-05-13T21:42:44.739Z,10.80
2023-05-13T21:45:12.877Z,9.75
2023-05-13T21:47:40.290Z,9.70
2023-05-13T21:50:09.403Z,10.30
2023-05-13T21:52:37.226Z,11.60
2023-05-13T21:55:04.731Z,10.55
2023-05-13T21:57:31.978Z,9.82
2023-05-13T21:59:59.139Z,9.52
2023-05-13T22:02:26.436Z,9.03
2023-05-13T22:04:53.654Z,9.48
2023-05-13T22:07:20.886Z,10.23
2023-05-13T22:09:49.761Z,10.38
2023-05-13T22:12:17.711Z,10.77
2023-05-13T22:14:45.260Z,10.97
2023-05-13T22:17:12.681Z,10.77
2023-05-13T22:19:40.303Z,10.18
2023-05-13T22:22:07.653Z,10.93
2023-05-13T22:24:34.921Z,9.55
2023-05-13T22:27:02.236Z,9.97
2023-05-13T22:29:29.553Z,10.15
2023-05-13T22:31:59.894Z,9.32
2023-05-13T22:34:27.319Z,10.25
2023-05-13T22:36:54.824Z,9.68
2023-05-13T22:39:22.122Z,10.30
2023-05-13T22:41:49.376Z,9.35
2023-05-13T22:44:16.682Z,9.68
2023-05-13T22:46:44.078Z,9.07
2023-05-13T22:49:12.283Z,9.13
2023-05-13T22:51:39.759Z,8.90
2023-05-13T22:54:07.213Z,10.50
2023-05-13T22:56:34.484Z,9.98
2023-05-13T22:59:01.691Z,10.55
2023-05-13T23:01:28.954Z,8.85
2023-05-13T23:03:56.285Z,8.67
2023-05-13T23:06:23.625Z,10.32
2023-05-13T23:08:51.073Z,9.50
2023-05-13T23:11:18.215Z,8.68
2023-05-13T23:13:45.438Z,10.13
2023-05-13T23:16:12.638Z,9.20
2023-05-13T23:18:40.005Z,8.45
2023-05-13T23:21:09.018Z,8.93
2023-05-13T23:23:36.401Z,9.93
2023-05-13T23:26:05.688Z,8.90
2023-05-13T23:28:33.387Z,8.90
2023-05-13T23:31:00.619Z,8.48
2023-05-13T23:33:27.837Z,9.30
2023-05-13T23:35:56.253Z,8.13
2023-05-13T23:38:23.583Z,9.65
2023-05-13T23:40:50.907Z,9.33
2023-05-13T23:43:18.243Z,8.43
2023-05-13T23:45:46.083Z,8.00
2023-05-13T23:48:13.273Z,9.75
2023-05-13T23:50:41.498Z,9.25
2023-05-13T23:53:08.873Z,9.43
2023-05-13T23:55:36.106Z,9.60
2023-05-13T23:58:03.353Z,8.98
